createdAt,value
2022-12-24T00:00:47.197Z,99596.92
2022-12-24T00:03:19.787Z,99595.18
2022-12-24T00:05:52.479Z,99600.41
2022-12-24T00:08:25.115Z,99595.11
2022-12-24T00:10:57.469Z,99595.33
2022-12-24T00:13:29.964Z,99598.91
2022-12-24T00:16:02.671Z,99601.55
2022-12-24T00:18:39.938Z,99602.64
2022-12-24T00:21:09.613Z,99602.56
2022-12-24T00:23:42.468Z,99601.47
2022-12-24T00:26:15.585Z,99592.30
2022-12-24T00:28:47.997Z,99593.84
2022-12-24T00:31:21.114Z,99593.56
2022-12-24T00:33:53.635Z,99590.52
2022-12-24T00:36:26.158Z,99591.38
2022-12-24T00:38:58.514Z,99588.70
2022-12-24T00:41:31.701Z,99579.67
2022-12-24T00:44:06.597Z,99576.98
2022-12-24T00:46:41.706Z,99567.60
2022-12-24T00:49:13.629Z,99563.36
2022-12-24T00:51:45.886Z,99558.36
2022-12-24T00:54:18.355Z,99563.00
2022-12-24T00:56:50.889Z,99564.48
2022-12-24T00:59:23.477Z,99562.93
2022-12-24T01:01:56.086Z,99563.30
2022-12-24T01:04:46.393Z,99559.89
2022-12-24T01:07:19.332Z,99567.06
2022-12-24T01:09:52.473Z,99568.88
2022-12-24T01:12:25.521Z,99574.64
2022-12-24T01:14:57.846Z,99577.69
2022-12-24T01:17:31.995Z,99575.63
2022-12-24T01:20:05.625Z,99573.59
2022-12-24T01:22:38.019Z,99580.16
2022-12-24T01:25:11.052Z,99576.97
2022-12-24T01:27:43.478Z,99584.44
2022-12-24T01:30:16.039Z,99583.45
2022-12-24T01:32:48.575Z,99582.77
2022-12-24T01:35:21.130Z,99586.69
2022-12-24T01:37:53.640Z,99583.75
2022-12-24T01:40:45.175Z,99578.38
2022-12-24T01:43:26.564Z,99565.80
2022-12-24T01:46:08.157Z,99563.88
2022-12-24T01:48:44.691Z,99556.81
2022-12-24T01:51:43.975Z,99560.94
2022-12-24T01:54:23.947Z,99559.20
2022-12-24T01:57:06.333Z,99559.97
2022-12-24T01:59:39.272Z,99559.89
2022-12-24T02:02:11.744Z,99559.09
2022-12-24T02:05:03.333Z,99559.81
2022-12-24T02:07:36.167Z,99565.19
2022-12-24T02:10:10.988Z,99558.91
2022-12-24T02:12:43.934Z,99554.55
2022-12-24T02:15:17.969Z,99550.02
2022-12-24T02:18:18.038Z,99549.80
2022-12-24T02:21:13.423Z,99548.96
2022-12-24T02:24:29.453Z,99547.36
2022-12-24T02:27:34.054Z,99545.35
2022-12-24T02:30:32.863Z,99548.71
2022-12-24T02:33:33.972Z,99543.25
2022-12-24T02:36:13.185Z,99542.80
2022-12-24T02:38:56.106Z,99542.83
2022-12-24T02:41:33.181Z,99544.19
2022-12-24T02:44:05.667Z,99537.25
2022-12-24T02:46:38.140Z,99537.02
2022-12-24T02:49:10.960Z,99535.33
2022-12-24T02:51:43.357Z,99534.63
2022-12-24T02:54:15.720Z,99536.34
2022-12-24T02:57:23.721Z,99538.03
2022-12-24T03:00:08.997Z,99534.76
2022-12-24T03:02:52.143Z,99538.45
2022-12-24T03:05:33.972Z,99531.50
2022-12-24T03:08:30.475Z,99539.80
2022-12-24T03:11:10.751Z,99532.73
2022-12-24T03:13:44.080Z,99529.41
2022-12-24T03:16:19.309Z,99534.20
2022-12-24T03:18:51.906Z,99537.61
2022-12-24T03:21:32.129Z,99534.56
2022-12-24T03:24:04.691Z,99532.49
2022-12-24T03:26:37.120Z,99533.45
2022-12-24T03:29:10.107Z,99534.55
2022-12-24T03:31:44.835Z,99533.67
2022-12-24T03:34:17.444Z,99526.36
2022-12-24T03:36:50.065Z,99528.46
2022-12-24T03:39:23.326Z,99529.92
2022-12-24T03:41:55.950Z,99530.16
2022-12-24T03:44:28.582Z,99522.91
2022-12-24T03:47:00.982Z,99522.78
2022-12-24T03:49:33.672Z,99517.88
2022-12-24T03:52:06.684Z,99518.34
2022-12-24T03:54:39.269Z,99515.52
2022-12-24T03:57:11.727Z,99515.03
2022-12-24T03:59:44.663Z,99523.32
2022-12-24T04:02:17.419Z,99520.47
2022-12-24T04:04:50.024Z,99527.58
2022-12-24T04:07:22.640Z,99524.66
2022-12-24T04:09:55.595Z,99535.31
2022-12-24T04:12:28.400Z,99527.03
2022-12-24T04:15:00.791Z,99524.47
2022-12-24T04:17:34.552Z,99517.64
2022-12-24T04:20:08.328Z,99529.61
2022-12-24T04:22:42.248Z,99525.00
2022-12-24T04:25:15.612Z,99523.16
2022-12-24T04:27:48.303Z,99523.68
2022-12-24T04:30:20.852Z,99523.45
2022-12-24T04:32:53.358Z,99521.13
2022-12-24T04:35:25.768Z,99522.82
2022-12-24T04:37:58.153Z,99513.19
2022-12-24T04:40:30.859Z,99516.75
2022-12-24T04:43:03.232Z,99513.23
2022-12-24T04:45:36.387Z,99510.79
2022-12-24T04:48:08.835Z,99509.69
2022-12-24T04:50:41.735Z,99507.74
2022-12-24T04:53:15.989Z,99510.31
2022-12-24T04:55:48.476Z,99508.85
2022-12-24T04:58:21.504Z,99509.57
2022-12-24T05:00:54.076Z,99512.26
2022-12-24T05:03:26.603Z,99514.23
2022-12-24T05:06:12.110Z,99513.98
2022-12-24T05:08:44.876Z,99509.95
2022-12-24T05:11:17.540Z,99503.83
2022-12-24T05:13:50.189Z,99502.61
2022-12-24T05:16:23.137Z,99500.74
2022-12-24T05:18:55.567Z,99511.61
2022-12-24T05:21:28.095Z,99511.12
2022-12-24T05:24:18.533Z,99499.26
2022-12-24T05:26:55.145Z,99506.34
2022-12-24T05:29:28.020Z,99507.56
2022-12-24T05:32:00.497Z,99516.50
2022-12-24T05:34:32.940Z,99520.02
2022-12-24T05:37:05.282Z,99517.45
2022-12-24T05:39:38.476Z,99521.75
2022-12-24T05:42:10.923Z,99523.68
2022-12-24T05:44:43.352Z,99522.56
2022-12-24T05:47:16.855Z,99531.61
2022-12-24T05:49:49.201Z,99529.63
2022-12-24T05:52:22.253Z,99535.87
2022-12-24T05:54:54.742Z,99538.56
2022-12-24T05:57:27.178Z,99531.61
2022-12-24T05:59:59.503Z,99529.05
2022-12-24T06:02:32.040Z,99531.16
2022-12-24T06:05:04.759Z,99533.58
2022-12-24T06:07:37.339Z,99540.81
2022-12-24T06:10:10.646Z,99545.32
2022-12-24T06:12:43.487Z,99555.23
2022-12-24T06:15:21.942Z,99551.56
2022-12-24T06:17:50.058Z,99559.16
2022-12-24T06:20:22.463Z,99557.30
2022-12-24T06:22:55.161Z,99559.17
2022-12-24T06:25:27.539Z,99560.00
2022-12-24T06:28:00.076Z,99556.61
2022-12-24T06:30:32.644Z,99562.23
2022-12-24T06:33:05.375Z,99561.52
2022-12-24T06:35:38.085Z,99560.42
2022-12-24T06:38:10.945Z,99561.17
2022-12-24T06:40:44.678Z,99561.41
2022-12-24T06:43:18.406Z,99555.45
2022-12-24T06:45:50.850Z,99559.36
2022-12-24T06:48:23.308Z,99560.08
2022-12-24T06:50:55.613Z,99554.22
2022-12-24T06:53:28.028Z,99563.41
2022-12-24T06:56:08.173Z,99563.01
2022-12-24T06:58:40.877Z,99566.45
2022-12-24T07:01:15.765Z,99565.86
2022-12-24T07:03:48.296Z,99573.06
2022-12-24T07:06:26.843Z,99565.51
2022-12-24T07:08:59.359Z,99562.81
2022-12-24T07:11:31.903Z,99573.34
2022-12-24T07:14:04.716Z,99576.75
2022-12-24T07:16:37.211Z,99577.14
2022-12-24T07:19:09.753Z,99572.12
2022-12-24T07:21:42.229Z,99566.14
2022-12-24T07:24:14.837Z,99565.03
2022-12-24T07:26:47.193Z,99570.54
2022-12-24T07:29:19.754Z,99570.66
2022-12-24T07:31:52.229Z,99572.59
2022-12-24T07:34:25.454Z,99573.47
2022-12-24T07:36:58.182Z,99566.50
2022-12-24T07:39:30.707Z,99569.08
2022-12-24T07:42:04.875Z,99572.98
2022-12-24T07:44:38.292Z,99570.42
2022-12-24T07:47:10.736Z,99570.30
2022-12-24T07:49:43.133Z,99569.23
2022-12-24T07:52:15.571Z,99569.86
2022-12-24T07:54:48.446Z,99567.77
2022-12-24T07:57:20.957Z,99568.95
2022-12-24T07:59:53.466Z,99563.81
2022-12-24T08:02:26.059Z,99563.06
2022-12-24T08:04:58.667Z,99566.10
2022-12-24T08:07:31.027Z,99559.25
2022-12-24T08:10:03.502Z,99563.28
2022-12-24T08:12:36.040Z,99564.86
2022-12-24T08:15:09.461Z,99573.64
2022-12-24T08:17:41.882Z,99557.63
2022-12-24T08:20:16.181Z,99556.03
2022-12-24T08:22:48.691Z,99554.33
2022-12-24T08:25:21.779Z,99539.15
2022-12-24T08:27:54.313Z,99548.45
2022-12-24T08:30:26.709Z,99546.27
2022-12-24T08:33:00.065Z,99545.64
2022-12-24T08:35:32.638Z,99539.78
2022-12-24T08:38:05.348Z,99543.11
2022-12-24T08:40:37.798Z,99545.69
2022-12-24T08:43:10.282Z,99549.60
2022-12-24T08:45:42.960Z,99546.20
2022-12-24T08:48:15.449Z,99546.20
2022-12-24T08:50:48.012Z,99554.78
2022-12-24T08:53:21.766Z,99543.80
2022-12-24T08:55:56.337Z,99539.75
2022-12-24T08:58:28.969Z,99550.66
2022-12-24T09:01:01.596Z,99542.18
2022-12-24T09:03:34.322Z,99555.16
2022-12-24T09:06:08.027Z,99562.03
2022-12-24T09:08:40.804Z,99560.17
2022-12-24T09:11:17.983Z,99563.38
2022-12-24T09:13:50.679Z,99565.08
2022-12-24T09:16:23.129Z,99563.73
2022-12-24T09:18:55.559Z,99564.33
2022-12-24T09:21:28.386Z,99557.34
2022-12-24T09:24:01.407Z,99558.57
2022-12-24T09:26:34.183Z,99559.91
2022-12-24T09:29:06.476Z,99553.19
2022-12-24T09:31:39.918Z,99548.63
2022-12-24T09:34:12.351Z,99558.33
2022-12-24T09:36:46.336Z,99553.88
2022-12-24T09:39:18.926Z,99551.45
2022-12-24T09:42:25.383Z,99553.89
2022-12-24T09:45:17.581Z,99551.06
2022-12-24T09:47:56.224Z,99554.41
2022-12-24T09:50:42.264Z,99556.02
2022-12-24T09:53:22.229Z,99558.94
2022-12-24T09:55:58.364Z,99558.47
2022-12-24T09:58:40.953Z,99561.78
2022-12-24T10:01:17.923Z,99564.13
2022-12-24T10:03:50.357Z,99561.16
2022-12-24T10:06:33.030Z,99564.95
2022-12-24T10:09:10.752Z,99561.42
2022-12-24T10:12:04.256Z,99564.70
2022-12-24T10:15:09.786Z,99568.98
2022-12-24T10:17:55.768Z,99574.25
2022-12-24T10:20:44.987Z,99569.26
2022-12-24T10:23:31.884Z,99570.60
2022-12-24T10:26:21.093Z,99574.64
2022-12-24T10:29:11.642Z,99581.62
2022-12-24T10:32:10.529Z,99580.88
2022-12-24T10:34:49.441Z,99570.09
2022-12-24T10:37:26.488Z,99578.66
2022-12-24T10:40:00.216Z,99573.42
2022-12-24T10:42:53.723Z,99581.73
2022-12-24T10:45:30.506Z,99577.34
2022-12-24T10:48:12.084Z,99577.34
2022-12-24T10:51:05.728Z,99574.87
2022-12-24T10:54:00.553Z,99577.45
2022-12-24T10:56:33.342Z,99574.16
2022-12-24T10:59:05.788Z,99577.08
2022-12-24T11:01:47.272Z,99580.36
2022-12-24T11:04:32.621Z,99581.47
2022-12-24T11:07:07.809Z,99586.61
2022-12-24T11:09:43.516Z,99583.90
2022-12-24T11:12:28.446Z,99590.66
2022-12-24T11:15:05.037Z,99581.34
2022-12-24T11:17:37.693Z,99575.33
2022-12-24T11:20:21.708Z,99581.41
2022-12-24T11:22:54.568Z,99581.65
2022-12-24T11:25:31.926Z,99582.11
2022-12-24T11:28:13.921Z,99578.08
2022-12-24T11:31:06.975Z,99584.94
2022-12-24T11:33:53.525Z,99585.19
2022-12-24T11:36:27.774Z,99587.89
2022-12-24T11:39:00.574Z,99591.19
2022-12-24T11:41:39.705Z,99591.93
2022-12-24T11:44:12.770Z,99592.03
2022-12-24T11:46:47.364Z,99594.25
2022-12-24T11:49:40.293Z,99588.34
2022-12-24T11:52:20.091Z,99588.59
2022-12-24T11:55:24.055Z,99591.31
2022-12-24T11:58:19.244Z,99588.27
2022-12-24T12:00:52.682Z,99589.98
2022-12-24T12:03:48.025Z,99589.73
2022-12-24T12:06:28.852Z,99591.37
2022-12-24T12:09:07.981Z,99593.44
2022-12-24T12:11:41.513Z,99600.78
2022-12-24T12:14:30.887Z,99591.98
2022-12-24T12:17:19.839Z,99595.77
2022-12-24T12:20:12.476Z,99594.31
2022-12-24T12:23:11.051Z,99602.64
2022-12-24T12:25:57.432Z,99597.14
2022-12-24T12:29:07.045Z,99596.42
2022-12-24T12:31:45.917Z,99602.41
2022-12-24T12:34:33.942Z,99604.36
2022-12-24T12:37:18.526Z,99613.19
2022-12-24T12:39:50.893Z,99609.15
2022-12-24T12:42:38.255Z,99617.98
2022-12-24T12:45:38.136Z,99614.89
2022-12-24T12:48:18.600Z,99609.03
2022-12-24T12:51:09.975Z,99612.59
2022-12-24T12:54:16.475Z,99616.36
2022-12-24T12:56:52.489Z,99615.88
2022-12-24T12:59:33.747Z,99614.03
2022-12-24T13:02:42.803Z,99617.72
2022-12-24T13:05:53.165Z,99621.14
2022-12-24T13:09:11.505Z,99623.72
2022-12-24T13:12:08.360Z,99625.30
2022-12-24T13:15:14.594Z,99627.02
2022-12-24T13:17:54.680Z,99631.53
2022-12-24T13:20:34.517Z,99641.42
2022-12-24T13:23:17.006Z,99643.64
2022-12-24T13:25:52.529Z,99649.38
2022-12-24T13:28:29.744Z,99654.28
2022-12-24T13:31:23.686Z,99651.82
2022-12-24T13:33:58.767Z,99653.28
2022-12-24T13:36:58.665Z,99654.75
2022-12-24T13:39:31.755Z,99653.75
2022-12-24T13:42:04.100Z,99658.89
2022-12-24T13:44:36.444Z,99657.75
2022-12-24T13:47:25.345Z,99655.70
2022-12-24T13:49:55.460Z,99662.06
2022-12-24T13:52:30.953Z,99660.33
2022-12-24T13:55:15.821Z,99659.09
2022-12-24T13:58:05.202Z,99657.23
2022-12-24T14:00:55.632Z,99667.76
2022-12-24T14:03:40.440Z,99686.52
2022-12-24T14:06:28.638Z,99679.69
2022-12-24T14:09:11.049Z,99686.81
2022-12-24T14:12:06.753Z,99690.97
2022-12-24T14:14:42.254Z,99690.34
2022-12-24T14:17:29.970Z,99701.10
2022-12-24T14:20:03.255Z,99698.53
2022-12-24T14:22:42.203Z,99697.94
2022-12-24T14:25:23.240Z,99707.60
2022-12-24T14:28:07.716Z,99702.49
2022-12-24T14:30:40.082Z,99702.49
2022-12-24T14:33:33.471Z,99706.64
2022-12-24T14:36:06.166Z,99711.16
2022-12-24T14:38:40.738Z,99708.23
2022-12-24T14:41:33.328Z,99705.78
2022-12-24T14:44:35.647Z,99713.16
2022-12-24T14:47:22.374Z,99727.21
2022-12-24T14:50:37.834Z,99728.20
2022-12-24T14:53:48.985Z,99734.83
2022-12-24T14:56:24.008Z,99734.94
2022-12-24T14:58:58.425Z,99737.27
2022-12-24T15:01:34.361Z,99737.75
2022-12-24T15:04:13.775Z,99739.45
2022-12-24T15:06:53.251Z,99743.36
2022-12-24T15:09:29.781Z,99743.36
2022-12-24T15:12:04.546Z,99742.25
2022-12-24T15:14:41.942Z,99745.81
2022-12-24T15:17:16.525Z,99744.83
2022-12-24T15:19:50.409Z,99741.30
2022-12-24T15:22:31.159Z,99745.58
2022-12-24T15:25:03.763Z,99750.72
2022-12-24T15:27:37.745Z,99745.45
2022-12-24T15:30:20.338Z,99749.49
2022-12-24T15:32:57.229Z,99749.09
2022-12-24T15:35:50.208Z,99750.67
2022-12-24T15:38:34.233Z,99754.72
2022-12-24T15:41:27.664Z,99745.55
2022-12-24T15:44:04.454Z,99759.73
2022-12-24T15:46:37.606Z,99757.41
2022-12-24T15:49:14.457Z,99756.06
2022-12-24T15:51:46.874Z,99759.27
2022-12-24T15:54:22.306Z,99753.99
2022-12-24T15:56:54.634Z,99749.31
2022-12-24T15:59:38.643Z,99751.41
2022-12-24T16:02:45.560Z,99751.86
2022-12-24T16:05:34.104Z,99757.20
2022-12-24T16:08:20.858Z,99763.51
2022-12-24T16:11:09.867Z,99766.06
2022-12-24T16:14:13.972Z,99767.64
2022-12-24T16:16:52.950Z,99761.61
2022-12-24T16:19:40.054Z,99773.23
2022-12-24T16:22:26.707Z,99764.19
2022-12-24T16:25:00.652Z,99773.02
2022-12-24T16:27:32.878Z,99774.72
2022-12-24T16:30:05.428Z,99770.09
2022-12-24T16:32:38.481Z,99780.50
2022-12-24T16:35:29.973Z,99780.10
2022-12-24T16:38:02.370Z,99779.16
2022-12-24T16:40:34.894Z,99788.57
2022-12-24T16:43:25.162Z,99791.84
2022-12-24T16:46:03.474Z,99789.52
2022-12-24T16:48:37.400Z,99785.26
2022-12-24T16:51:10.075Z,99788.34
2022-12-24T16:53:42.847Z,99786.38
2022-12-24T16:56:16.925Z,99786.27
2022-12-24T16:58:49.348Z,99791.30
2022-12-24T17:01:22.254Z,99792.66
2022-12-24T17:03:55.434Z,99791.22
2022-12-24T17:06:28.066Z,99797.36
2022-12-24T17:09:01.489Z,99798.59
2022-12-24T17:11:35.067Z,99803.98
2022-12-24T17:14:08.963Z,99805.69
2022-12-24T17:16:42.097Z,99810.42
2022-12-24T17:19:14.462Z,99803.05
2022-12-24T17:21:48.956Z,99812.83
2022-12-24T17:24:21.294Z,99813.06
2022-12-24T17:26:54.216Z,99812.92
2022-12-24T17:29:26.696Z,99811.69
2022-12-24T17:31:59.125Z,99809.70
2022-12-24T17:34:31.416Z,99800.68
2022-12-24T17:37:04.218Z,99797.98
2022-12-24T17:39:36.618Z,99809.70
2022-12-24T17:42:09.027Z,99811.05
2022-12-24T17:44:41.594Z,99806.42
2022-12-24T17:47:14.307Z,99816.20
2022-12-24T17:49:46.817Z,99818.17
2022-12-24T17:52:19.347Z,99814.48
2022-12-24T17:54:51.933Z,99817.66
2022-12-24T17:57:24.430Z,99818.53
2022-12-24T17:59:57.639Z,99824.27
2022-12-24T18:02:30.479Z,99814.38
2022-12-24T18:05:04.575Z,99820.77
2022-12-24T18:07:37.626Z,99821.13
2022-12-24T18:10:11.667Z,99818.44
2022-12-24T18:12:45.423Z,99820.55
2022-12-24T18:15:22.844Z,99826.52
2022-12-24T18:17:56.179Z,99822.70
2022-12-24T18:20:28.615Z,99826.97
2022-12-24T18:23:01.126Z,99827.58
2022-12-24T18:25:33.516Z,99836.02
2022-12-24T18:28:06.248Z,99842.74
2022-12-24T18:30:38.826Z,99846.30
2022-12-24T18:33:11.311Z,99849.47
2022-12-24T18:35:43.854Z,99854.63
2022-12-24T18:38:17.250Z,99853.28
2022-12-24T18:40:49.792Z,99851.46
2022-12-24T18:43:22.787Z,99856.20
2022-12-24T18:45:55.534Z,99856.42
2022-12-24T18:48:28.186Z,99866.05
2022-12-24T18:51:01.513Z,99875.47
2022-12-24T18:53:34.306Z,99874.48
2022-12-24T18:56:09.113Z,99878.05
2022-12-24T18:58:42.457Z,99884.66
2022-12-24T19:01:21.646Z,99894.84
2022-12-24T19:03:54.214Z,99896.66
2022-12-24T19:06:27.691Z,99892.63
2022-12-24T19:09:01.498Z,99891.53
2022-12-24T19:11:35.235Z,99899.02
2022-12-24T19:14:08.478Z,99902.30
2022-12-24T19:16:41.990Z,99901.64
2022-12-24T19:19:14.473Z,99898.12
2022-12-24T19:21:47.530Z,99904.63
2022-12-24T19:24:20.546Z,99902.41
2022-12-24T19:26:52.925Z,99910.11
2022-12-24T19:29:25.878Z,99909.64
2022-12-24T19:31:58.374Z,99913.67
2022-12-24T19:34:30.887Z,99916.83
2022-12-24T19:37:03.772Z,99919.16
2022-12-24T19:39:37.027Z,99920.50
2022-12-24T19:42:09.526Z,99923.19
2022-12-24T19:44:42.039Z,99921.73
2022-12-24T19:47:14.345Z,99925.05
2022-12-24T19:49:46.740Z,99926.80
2022-12-24T19:52:19.238Z,99920.44
2022-12-24T19:54:51.872Z,99927.81
2022-12-24T19:57:24.286Z,99927.70
2022-12-24T19:59:57.344Z,99928.07
2022-12-24T20:02:29.924Z,99932.95
2022-12-24T20:05:02.398Z,99937.95
2022-12-24T20:07:35.647Z,99942.50
2022-12-24T20:10:09.507Z,99945.41
2022-12-24T20:12:42.315Z,99947.59
2022-12-24T20:15:14.616Z,99952.02
2022-12-24T20:17:48.667Z,99951.15
2022-12-24T20:20:22.260Z,99948.83
2022-12-24T20:22:54.543Z,99956.05
2022-12-24T20:25:26.895Z,99956.05
2022-12-24T20:27:59.908Z,99960.93
2022-12-24T20:30:32.729Z,99960.56
2022-12-24T20:33:05.324Z,99969.31
2022-12-24T20:35:38.882Z,99970.52
2022-12-24T20:38:11.542Z,99969.70
2022-12-24T20:40:47.153Z,99969.07
2022-12-24T20:43:24.109Z,99975.69
2022-12-24T20:45:56.943Z,99975.95
2022-12-24T20:48:31.267Z,99979.41
2022-12-24T20:51:25.570Z,99979.77
2022-12-24T20:54:00.393Z,99981.22
2022-12-24T20:56:33.000Z,99987.58
2022-12-24T20:59:05.437Z,99992.75
2022-12-24T21:01:39.076Z,99987.99
2022-12-24T21:04:12.483Z,99991.34
2022-12-24T21:06:45.086Z,99995.08
2022-12-24T21:09:17.893Z,99996.59
2022-12-24T21:11:50.441Z,99987.60
2022-12-24T21:14:25.507Z,99996.70
2022-12-24T21:16:58.483Z,99991.95
2022-12-24T21:19:30.866Z,99994.89
2022-12-24T21:22:04.580Z,99995.30
2022-12-24T21:24:37.684Z,99993.06
2022-12-24T21:27:10.624Z,99998.91
2022-12-24T21:29:43.027Z,100000.92
2022-12-24T21:32:15.543Z,100008.66
2022-12-24T21:34:48.283Z,100006.00
2022-12-24T21:37:21.554Z,100012.31
2022-12-24T21:39:53.967Z,100010.77
2022-12-24T21:42:26.715Z,100003.02
2022-12-24T21:44:59.327Z,100005.60
2022-12-24T21:47:31.837Z,100004.16
2022-12-24T21:50:26.718Z,100009.02
2022-12-24T21:52:58.466Z,100010.73
2022-12-24T21:55:30.474Z,100009.39
2022-12-24T21:58:02.945Z,100006.91
2022-12-24T22:00:37.045Z,100014.26
2022-12-24T22:03:09.644Z,100016.64
2022-12-24T22:05:42.464Z,100017.98
2022-12-24T22:08:34.029Z,100007.84
2022-12-24T22:11:24.975Z,100010.52
2022-12-24T22:13:57.520Z,100019.33
2022-12-24T22:16:30.502Z,100016.06
2022-12-24T22:19:03.023Z,100011.16
2022-12-24T22:21:36.607Z,100014.92
2022-12-24T22:24:30.715Z,100021.84
2022-12-24T22:27:04.101Z,100017.15
2022-12-24T22:29:36.503Z,100025.71
2022-12-24T22:32:08.967Z,100023.13
2022-12-24T22:34:41.508Z,100026.12
2022-12-24T22:37:13.945Z,100028.80
2022-12-24T22:39:46.648Z,100032.23
2022-12-24T22:42:19.253Z,100037.84
2022-12-24T22:44:51.626Z,100039.18
2022-12-24T22:47:24.686Z,100042.44
2022-12-24T22:49:57.192Z,100049.16
2022-12-24T22:52:29.563Z,100044.86
2022-12-24T22:55:02.523Z,100048.98
2022-12-24T22:57:35.141Z,100057.14
2022-12-24T23:00:15.534Z,100058.39
2022-12-24T23:02:48.266Z,100057.14
2022-12-24T23:05:20.921Z,100057.52
2022-12-24T23:07:53.759Z,100059.73
2022-12-24T23:10:26.361Z,100062.88
2022-12-24T23:13:16.640Z,100066.45
2022-12-24T23:15:49.106Z,100071.62
2022-12-24T23:18:21.560Z,100071.52
2022-12-24T23:20:53.989Z,100075.05
2022-12-24T23:23:29.641Z,100078.50
2022-12-24T23:26:06.431Z,100075.81
2022-12-24T23:28:39.668Z,100078.03
2022-12-24T23:31:13.101Z,100083.78
2022-12-24T23:33:45.620Z,100086.20
2022-12-24T23:36:18.211Z,100087.73
2022-12-24T23:38:51.590Z,100087.73
2022-12-24T23:41:24.796Z,100092.23
2022-12-24T23:43:57.308Z,100095.39
2022-12-24T23:46:30.409Z,100103.45
2022-12-24T23:49:03.246Z,100107.11
2022-12-24T23:51:35.669Z,100100.49
2022-12-24T23:54:08.224Z,100109.80
2022-12-24T23:56:41.067Z,100112.66
2022-12-24T23:59:13.813Z,100112.66
